Terminal Aerodrome Forecast
Issued by NWS Jackson, MS

Home | Current Version | Previous Version | Text Only | Print | Product List | Glossary On
Versions: 1 2 3 4 5 6 7 8 9 10 11 12 13
000
FTUS44 KMEG 290530
TAFTUP
TAF
KTUP 290530Z 2906/3006 VRB04KT P6SM SKC
     FM291400 14008KT P6SM FEW020 BKN150
     FM292000 18007KT P6SM VCTS BKN050CB BKN120
      TEMPO 2920/2923 5SM -TSRA BKN020CB
     FM300100 15008KT 5SM -TSRA BR BKN050CB=

USA.gov is the U.S. government's official web portal to all federal, state and local government web resources and services.